Ivan Lopez

Olheiro-Chefe - Uruguay Montevideo
3 Fev 2028
Quinta-feira
Processo

Personalidade

Adaptabilidade (20) Ambição (17) Controvérsia (10) Lealdade (17) Pressão (6) Profissionalismo (7) Espírito Esportivo (14) Temperamento (9)

Perfil

Estilo de Treinamento Democrático
Licença Continental Pro
Determinação 5
Gestão de Pessoas 9
Motivação 3
Disciplina 4
Satisfação no Trabalho
55%
Fadiga
0%
Função Olheiro-Chefe
Salário 7.3K p/s
Contrato 14.03.2028

Desempenho

Comportamento Bom
Eficácia do Treinamento
13%
Desenvolvimento do Jogador
15%
Prevenção de Lesões
25%
Implementação Tática
15%

Eventos Recentes

Negociação de contrato iniciada agora
Negociação de contrato iniciada 7d atrás
Aniversário 7d atrás
Negociação de contrato iniciada 7d atrás
Negociação de contrato iniciada 7d atrás
Negociação de contrato iniciada 7d atrás
Negociação de contrato iniciada 7d atrás
Negociação de contrato iniciada 7d atrás

Monitorando agora

57
Jogador Clube Status Habilidade Confiança Observado Última observação Último voto
Ignacio Vallejos Colegiales Ativo 110 / 115 40% 2 31.12.2027 -
Fernando Abarzúa San Luis Ativo 96 / 95 40% 1 31.12.2027 -
Moisés Gallo Zulia Ativo 100 / 106 40% 1 31.12.2027 -
Gabriel Risso Patrón Colón Ativo 121 / 105 40% 1 30.12.2027 -
David Veliz Güemes Ativo 123 / 112 40% 1 29.12.2027 -
Emiliano Purita All Boys Ativo 116 / 101 40% 1 29.12.2027 -
Adriano Freitas Rampla Juniors Ativo 94 / 96 40% 1 29.12.2027 -
Mustapha Lawal Shooting Stars Ativo 89 / 96 40% 1 29.12.2027 -
Facundo Rizzi Güemes Ativo 120 / 105 40% 1 28.12.2027 -
Diego Gaitán Maipú Ativo 116 / 123 40% 1 28.12.2027 -
Emanuel Iñíguez Morón Ativo 105 / 115 40% 1 28.12.2027 -
Matías Viguet Maipú Ativo 123 / 106 40% 1 27.12.2027 -
Álvaro Veliez San Martín Ativo 113 / 102 40% 1 27.12.2027 -
Santiago Sala Güemes Ativo 123 / 114 40% 3 20.07.2027 -
Tomás Bolzicco Chaco For Ever Ativo 93 / 110 40% 2 20.07.2027 -
Nicolás Heiz Kudrivka Ativo 109 / 99 40% 5 19.07.2027 -
Rodin Quiñónes MTK Budapest Ativo 129 / 124 40% 2 17.07.2027 -
Santiago Apa All Boys Ativo 101 / 102 40% 3 16.07.2027 -
Samuel Tetteh Ashanti Gold Ativo 109 / 97 40% 1 16.07.2027 -
Sean Parker Lecco Ativo 91 / 96 40% 2 13.07.2027 -
Jack Vale Pro Vercelli Ativo 109 / 105 40% 2 12.07.2027 -
Robert Mendoza Portuguesa Ativo 92 / 84 40% 1 12.07.2027 -
Lisandro Cabrera Maipú Ativo 106 / 122 40% 1 11.07.2027 -
Harry Cornick AFC Wimbledon Ativo 94 / 108 40% 6 10.07.2027 -
José Rondón Zulia Ativo 87 / 87 40% 1 08.07.2027 -
Ronny Maza Aragua Ativo 103 / 103 40% 1 08.07.2027 -
Rodrigo Soria Vorskla Ativo 107 / 94 40% 3 07.07.2027 -
David Muñoz Vicenza Ativo 95 / 85 40% 1 07.07.2027 -
Michael De Marchi Pergolettese Ativo 97 / 109 40% 1 06.07.2027 -
Bismark Asante Ashanti Gold Ativo 92 / 105 40% 2 04.07.2027 -
Mohammed Boateng Liberty Professionals Ativo 95 / 84 40% 1 04.07.2027 -
Gonzalo Berterame Morón Ativo 101 / 118 40% 2 03.07.2027 -
Alex Morales Vorskla Ativo 84 / 86 40% 1 03.07.2027 -
Alexandr Yushin Torpedo Moscow Ativo 121 / 116 40% 1 02.07.2027 -
Francisco Borda Central Norte Ativo 97 / 102 40% 1 02.07.2027 -
Harvey Saunders Tranmere Rovers Ativo 101 / 76 40% 1 28.06.2027 -
Rhys Browne Barnet Ativo 107 / 91 40% 1 25.06.2027 -
Gianluca Pugliese Obolon Ativo 135 / 99 40% 2 24.06.2027 -
Chisom Orji Warri Wolves Ativo 79 / 77 40% 1 22.06.2027 -
Malick Traoré Onze Createurs Ativo 85 / 102 40% 1 21.06.2027 -
Ronan Curtis Plymouth Argyle Ativo 85 / 108 40% 1 18.06.2027 -
José Álvarez Arsenal Tula Ativo 120 / 118 40% 1 18.06.2027 -
Aldair Ramírez Chernomorets Ativo 109 / 95 40% 1 16.06.2027 -
Harry Smith Barnet Ativo 116 / 90 40% 1 13.06.2027 -
Facundo Castro Nueva Chicago Ativo 116 / 115 40% 1 11.06.2027 -
Rhys Oates Mansfield Town Ativo 115 / 101 40% 1 11.06.2027 -
Oleh Kozhushko Bukovyna Ativo 100 / 115 40% 1 10.06.2027 -
Jhon Miranda Lokomotiv Sofia Ativo 96 / 84 40% 1 09.06.2027 -
Ivan Luquetta Chernomorets Ativo 80 / 103 40% 1 07.06.2027 -
Matías Gómez Karpaty Ativo 112 / 92 40% 1 23.12.2026 -
Franco Farías Zenit Penza Ativo 82 / 77 40% 1 23.12.2026 -
Jonathan Vega NK Zavrc Ativo 74 / 94 40% 1 22.12.2026 -
Lorenzo Insigne Sampdoria Ativo 120 / 145 40% 1 21.12.2026 -
Diego Amarilla Strogino Ativo 70 / 90 40% 1 21.12.2026 -
José Rodrigo Lugo NK Zavrc Ativo 104 / 106 40% 1 18.12.2026 -
Matías Machado Racing Ativo 98 / 113 40% 1 18.12.2026 -
Alejo Dramisino Atlanta Ativo 131 / 117 40% 1 15.12.2026 -